»·PEaware :: N325DW KSNA-L71

N325DW :: KSNA-L71

FLIGHT INFORMATION

Flight Status: Arrived
Operator: Privately registered:
United States
More flights under this callsign
Pilot: Anders F. (8068)
Aircraft: ECLIPSE 500
(EA50)
More flights by this aircraft type
Origin: KSNA John Wayne-Orange Co
United States
Destination: L71 California City Mun
United States
More flights between these airports :: More routes between these airports
Route: +SLI V459 BERRI V201 PMD FISCH
File this flight plan on PilotEdge
Remarks:
Altitude:
(Current/Filed)
12,000ft
Speed:
(Current/Filed)
315kts
Departed: 29-Jul-17 03:13 PM
Arrived: 29-Jul-17 03:42 PM
Distance/Time
Traveled:
89nm/0:29
Distance/Time
To Go:
Arrived

Flight Plot

Page will automatically refresh every two minutes.

Flight plan parsing failed; only flown route is shown


Map Options




Map Legend


Flown Route
Filed Route
Departure Airport
Arrival Airport
Navaid (VOR, NDB)
Fix

Horizontal Profiles

Position Reports

Time Latitude Longitude Heading Altitude Ground
Speed
29-Jul-17 15:03 33.672267 -117.867315 297 59ft 0kts
29-Jul-17 15:04 33.672267 -117.867315 297 59ft 0kts
29-Jul-17 15:05 33.672267 -117.867315 297 59ft 0kts
29-Jul-17 15:06 33.672267 -117.867315 297 59ft 0kts
29-Jul-17 15:07 33.672321 -117.867438 297 59ft 5kts
29-Jul-17 15:08 33.676853 -117.864714 27 59ft 22kts
29-Jul-17 15:09 33.680578 -117.862915 303 59ft 6kts
29-Jul-17 15:10 33.680678 -117.863118 297 59ft 0kts
29-Jul-17 15:11 33.680686 -117.863136 297 59ft 0kts
29-Jul-17 15:12 33.681195 -117.864286 297 59ft 3kts
29-Jul-17 15:13 33.681425 -117.865198 210 59ft 0kts
29-Jul-17 15:14 33.681425 -117.865198 210 59ft 0kts
29-Jul-17 15:15 33.681425 -117.865198 210 59ft 0kts
29-Jul-17 15:16 33.670930 -117.872016 209 313ft 125kts
29-Jul-17 15:17 33.627303 -117.889996 187 2929ft 177kts
29-Jul-17 15:18 33.573318 -117.898781 187 5364ft 211kts
29-Jul-17 15:19 33.518495 -117.923738 242 7044ft 262kts
29-Jul-17 15:20 33.544905 -118.003333 343 7036ft 305kts
29-Jul-17 15:21 33.621602 -118.017569 350 7038ft 272kts
29-Jul-17 15:22 33.694850 -118.033827 349 7038ft 267kts
29-Jul-17 15:23 33.766463 -118.050916 349 7605ft 257kts
29-Jul-17 15:24 33.830112 -118.082445 335 10036ft 255kts
29-Jul-17 15:25 33.892275 -118.117648 335 11987ft 263kts
29-Jul-17 15:26 33.965311 -118.159480 335 12030ft 317kts
29-Jul-17 15:27 34.046751 -118.206404 335 12160ft 337kts
29-Jul-17 15:28 34.124764 -118.251496 335 12114ft 337kts
29-Jul-17 15:29 34.209171 -118.277155 17 12030ft 332kts
29-Jul-17 15:30 34.295149 -118.239481 22 12019ft 329kts
29-Jul-17 15:31 34.379393 -118.196862 23 12041ft 328kts
29-Jul-17 15:32 34.462876 -118.153145 24 12050ft 328kts
29-Jul-17 15:33 34.546042 -118.109159 24 12052ft 328kts
29-Jul-17 15:34 34.631622 -118.089094 330 12047ft 331kts
29-Jul-17 15:35 34.701590 -118.161001 316 12049ft 331kts
29-Jul-17 15:36 34.767248 -118.239003 329 12031ft 331kts
29-Jul-17 15:37 34.851817 -118.223484 25 10282ft 315kts
29-Jul-17 15:38 34.929275 -118.174740 30 8286ft 313kts
29-Jul-17 15:39 34.998759 -118.126543 29 7024ft 277kts
29-Jul-17 15:40 35.058815 -118.074900 43 5346ft 258kts
29-Jul-17 15:41 35.110480 -118.022158 22 4527ft 250kts
29-Jul-17 15:42 35.169052 -118.018546 348 3751ft 181kts
29-Jul-17 15:43 35.167298 -118.000558 73 3386ft 131kts
29-Jul-17 15:44 35.154626 -118.000708 254 2536ft 89kts
29-Jul-17 15:45 35.150896 -118.016317 164 2422ft 3kts
29-Jul-17 15:46 35.150339 -118.015753 87 2422ft 0kts
29-Jul-17 15:47 35.150339 -118.015753 87 2422ft 0kts
29-Jul-17 15:48 35.150339 -118.015753 87 2422ft 0kts
29-Jul-17 15:49 35.150339 -118.015753 87 2422ft 0kts
29-Jul-17 15:50 35.150339 -118.015753 87 2422ft 0kts
29-Jul-17 15:51 35.150339 -118.015753 87 2422ft 0kts
29-Jul-17 15:52 35.150339 -118.015753 87 2422ft 0kts
29-Jul-17 15:53 35.150339 -118.015753 87 2422ft 0kts
29-Jul-17 15:54 35.150339 -118.015753 87 2422ft 0kts
29-Jul-17 15:55 35.150339 -118.015753 87 2422ft 0kts
29-Jul-17 15:56 35.150339 -118.015753 87 2422ft 0kts
29-Jul-17 15:57 35.151725 -118.011072 75 2422ft 27kts
29-Jul-17 15:58 35.153031 -118.006899 335 2422ft 8kts
29-Jul-17 15:59 35.148529 -118.030128 254 2749ft 139kts

Navigation Log

Ident Type
Flight plan parsing failed, navigation log unavailable